Time;durP1;ratioP1;P1;durP2;ratioP2;P2;SDS_P1;SDS_P2;PMS_P1;PMS_P2;Temp;Humidity;BMP_temperature;BMP_pressure;BME280_temperature;BME280_humidity;BME280_pressure;Samples;Min_cycle;Max_cycle;Signal;HPM_P1;HPM_P2
2023/03/29 00:07:12;;;;;;;1999.90;999.90;;;5.70;99.90;;;;;;6724238;88;20181;-78
2023/03/29 00:17:13;;;;;;;1999.90;999.90;;;5.70;99.90;;;;;;6719330;87;20205;-78
2023/03/29 00:27:17;;;;;;;1999.90;999.90;;;5.90;99.90;;;;;;6722215;87;20239;-78
2023/03/29 00:37:18;;;;;;;1999.90;999.90;;;5.80;99.90;;;;;;6704048;88;20517;-79
2023/03/29 00:47:24;;;;;;;1999.90;999.90;;;5.80;99.90;;;;;;6738248;88;20355;-78
2023/03/29 00:57:27;;;;;;;1999.90;999.90;;;5.80;99.90;;;;;;6677564;88;20189;-78
2023/03/29 01:08:01;;;;;;;1999.90;999.90;;;5.80;99.90;;;;;;6710336;88;20272;-77
2023/03/29 01:18:01;;;;;;;1999.90;999.90;;;5.80;99.90;;;;;;6724742;88;20157;-76
2023/03/29 01:28:10;;;;;;;1999.90;999.90;;;5.70;99.90;;;;;;6716092;88;20179;-78
2023/03/29 01:38:20;;;;;;;1999.90;999.90;;;5.80;99.90;;;;;;6737501;88;20565;-78
2023/03/29 01:48:26;;;;;;;1999.90;999.90;;;5.80;99.90;;;;;;6719322;88;20240;-78
2023/03/29 01:58:32;;;;;;;1999.90;999.90;;;5.90;99.90;;;;;;6737541;88;20197;-77
2023/03/29 02:08:34;;;;;;;1999.90;999.90;;;6.00;99.90;;;;;;6734804;88;20162;-78
2023/03/29 02:18:35;;;;;;;1999.90;999.90;;;6.00;99.90;;;;;;6740455;88;20201;-78
2023/03/29 02:28:36;;;;;;;1999.90;999.90;;;6.20;99.90;;;;;;6730286;88;20694;-78
2023/03/29 02:38:37;;;;;;;1999.90;999.90;;;6.10;99.90;;;;;;6737306;88;20234;-78
2023/03/29 02:48:39;;;;;;;1999.90;999.90;;;6.20;99.90;;;;;;6730922;88;20228;-78
2023/03/29 02:58:40;;;;;;;1999.90;999.90;;;6.20;99.90;;;;;;6739441;88;20188;-77
2023/03/29 03:08:40;;;;;;;1999.90;999.90;;;6.30;99.90;;;;;;6705215;88;20220;-78
2023/03/29 03:18:41;;;;;;;1999.90;999.90;;;6.30;99.90;;;;;;6722319;88;20196;-78
2023/03/29 03:28:42;;;;;;;1999.90;999.90;;;6.40;99.90;;;;;;6712625;88;20250;-77
2023/03/29 03:38:43;;;;;;;1999.90;999.90;;;6.40;99.90;;;;;;6725375;88;20184;-78
2023/03/29 03:48:45;;;;;;;1999.90;999.90;;;6.40;99.90;;;;;;6734936;88;20181;-78
2023/03/29 03:58:46;;;;;;;1999.90;999.90;;;6.40;99.90;;;;;;6725371;88;20815;-78
2023/03/29 04:08:47;;;;;;;1999.90;999.90;;;6.50;99.90;;;;;;6729965;88;20254;-77
2023/03/29 04:18:47;;;;;;;1999.90;999.90;;;6.60;99.90;;;;;;6733738;88;20192;-78
2023/03/29 04:29:08;;;;;;;1999.90;999.90;;;6.70;99.90;;;;;;6741534;77;20194;-79
2023/03/29 04:39:09;;;;;;;1999.90;999.90;;;6.70;99.90;;;;;;6725688;88;20640;-79
2023/03/29 04:49:10;;;;;;;1999.90;999.90;;;6.80;99.90;;;;;;6729133;88;20189;-79
2023/03/29 04:59:10;;;;;;;1999.90;999.90;;;6.80;99.90;;;;;;6724081;88;20718;-78
2023/03/29 05:09:11;;;;;;;1999.90;999.90;;;6.90;99.90;;;;;;6721662;88;20202;-78
2023/03/29 05:19:11;;;;;;;1999.90;999.90;;;6.90;99.90;;;;;;6721202;88;20200;-79
2023/03/29 05:29:12;;;;;;;1999.90;999.90;;;6.80;99.90;;;;;;6721500;88;20197;-78
2023/03/29 05:39:14;;;;;;;1999.90;999.90;;;6.80;99.90;;;;;;6725737;88;20540;-78
2023/03/29 05:49:15;;;;;;;1999.90;999.90;;;6.90;99.90;;;;;;6692191;88;20186;-79
2023/03/29 05:59:16;;;;;;;1999.90;999.90;;;7.00;99.90;;;;;;6699478;88;20215;-77
2023/03/29 06:09:17;;;;;;;1999.90;999.90;;;7.00;99.90;;;;;;6704891;88;20189;-81
2023/03/29 06:19:18;;;;;;;1999.90;999.90;;;7.00;99.90;;;;;;6716763;88;20297;-79
2023/03/29 06:29:19;;;;;;;1999.90;999.90;;;7.20;99.90;;;;;;6723315;88;20193;-78
2023/03/29 06:39:19;;;;;;;1999.90;999.90;;;7.30;99.90;;;;;;6726657;88;20179;-78
2023/03/29 06:49:20;;;;;;;1999.90;999.90;;;7.40;99.90;;;;;;6734072;88;20173;-82
2023/03/29 06:59:21;;;;;;;1999.90;999.90;;;7.60;99.90;;;;;;6726474;88;20714;-78
2023/03/29 07:09:22;;;;;;;1999.90;999.90;;;7.80;99.90;;;;;;6725661;88;20255;-78
2023/03/29 07:19:26;;;;;;;1999.90;999.90;;;7.90;99.90;;;;;;6732693;88;20205;-79
2023/03/29 07:29:27;;;;;;;1999.90;999.90;;;7.90;99.90;;;;;;6715401;88;20170;-80
2023/03/29 07:39:29;;;;;;;1999.90;999.90;;;8.20;99.90;;;;;;6716106;88;20355;-81
2023/03/29 07:49:30;;;;;;;1999.90;999.90;;;8.50;99.90;;;;;;6723251;88;20150;-83
2023/03/29 07:59:31;;;;;;;1999.90;999.90;;;8.70;99.90;;;;;;6730806;88;20186;-83
2023/03/29 08:09:31;;;;;;;1999.90;999.90;;;9.10;99.90;;;;;;6715085;88;20206;-78
2023/03/29 08:19:32;;;;;;;1999.90;999.90;;;9.40;99.90;;;;;;6717429;88;20259;-78
2023/03/29 08:29:32;;;;;;;1999.90;999.90;;;9.90;99.90;;;;;;6720036;88;20504;-78
2023/03/29 08:39:33;;;;;;;1999.90;999.90;;;10.50;99.90;;;;;;6713643;88;20201;-79
2023/03/29 08:49:38;;;;;;;1999.90;999.90;;;11.00;99.90;;;;;;6708132;88;20243;-79
2023/03/29 08:59:40;;;;;;;1999.90;999.90;;;10.80;99.90;;;;;;6710682;88;20228;-80
2023/03/29 09:09:41;;;;;;;1999.90;999.90;;;10.70;99.90;;;;;;6713250;88;20174;-78
2023/03/29 09:19:50;;;;;;;1999.90;999.90;;;10.90;99.90;;;;;;6720608;88;20190;-77
2023/03/29 09:30:24;;;;;;;1999.90;999.90;;;11.00;99.90;;;;;;6706018;88;20329;-77
2023/03/29 09:40:37;;;;;;;1999.90;999.90;;;11.40;99.90;;;;;;6723641;88;20365;-77
2023/03/29 09:50:41;;;;;;;1999.90;999.90;;;11.60;99.90;;;;;;6717186;88;20660;-78
2023/03/29 10:00:42;;;;;;;1999.90;999.90;;;11.60;99.90;;;;;;6694997;88;20227;-78
2023/03/29 10:10:42;;;;;;;1999.90;999.90;;;11.80;99.90;;;;;;6705384;88;20206;-78
2023/03/29 10:20:43;;;;;;;1999.90;999.90;;;11.90;99.90;;;;;;6718165;88;20214;-77
2023/03/29 10:41:50;;;;;;;1999.90;999.90;;;12.20;99.90;;;;;;6742803;88;20224;-78
2023/03/29 10:51:51;;;;;;;1999.90;999.90;;;12.70;99.90;;;;;;6714519;88;20181;-79
2023/03/29 11:02:27;;;;;;;1999.90;999.90;;;13.30;99.90;;;;;;6747221;88;20185;-79
2023/03/29 11:12:36;;;;;;;1999.90;999.90;;;14.20;99.90;;;;;;6747091;88;20220;-79
2023/03/29 11:22:51;;;;;;;1999.90;999.90;;;14.10;99.90;;;;;;6725573;88;20181;-79
2023/03/29 11:33:27;;;;;;;1999.90;999.90;;;14.60;99.90;;;;;;6726027;88;20186;-79
2023/03/29 11:43:36;;;;;;;1999.90;999.90;;;14.70;99.90;;;;;;6738930;88;20648;-78
2023/03/29 11:54:03;;;;;;;1999.90;999.90;;;14.50;99.90;;;;;;6732427;88;20822;-78
2023/03/29 12:04:14;;;;;;;1999.90;999.90;;;14.90;99.90;;;;;;6715047;88;20211;-78
2023/03/29 12:14:27;;;;;;;1999.90;999.90;;;15.30;99.90;;;;;;6725606;88;20281;-78
2023/03/29 12:24:31;;;;;;;1999.90;999.90;;;16.60;99.90;;;;;;6735178;88;20188;-78
2023/03/29 12:34:50;;;;;;;1999.90;999.90;;;17.00;99.90;;;;;;6745784;87;20208;-78
2023/03/29 12:44:58;;;;;;;1999.90;999.90;;;16.90;99.90;;;;;;6730056;88;20170;-78
2023/03/29 12:55:03;;;;;;;1999.90;999.90;;;16.80;99.90;;;;;;6735212;88;20859;-77
2023/03/29 13:05:31;;;;;;;1999.90;999.90;;;16.50;99.90;;;;;;6729819;88;20185;-79
2023/03/29 13:15:35;;;;;;;1999.90;999.90;;;16.80;99.90;;;;;;6695326;88;20350;-79
2023/03/29 13:25:37;;;;;;;1999.90;999.90;;;17.40;99.90;;;;;;6703565;88;20191;-79
2023/03/29 13:36:04;;;;;;;1999.90;999.90;;;20.00;99.90;;;;;;6680424;88;20213;-79
2023/03/29 13:46:18;;;;;;;1999.90;999.90;;;19.90;99.90;;;;;;6735398;88;20186;-78
2023/03/29 13:56:25;;;;;;;1999.90;999.90;;;18.90;99.90;;;;;;6737893;88;20193;-79
2023/03/29 14:06:30;;;;;;;1999.90;999.90;;;17.60;99.90;;;;;;6739478;88;20224;-79
2023/03/29 14:16:35;;;;;;;1999.90;999.90;;;17.40;99.90;;;;;;6733798;88;20197;-78
2023/03/29 14:26:36;;;;;;;1999.90;999.90;;;17.40;99.90;;;;;;6730752;88;21306;-78
2023/03/29 14:36:37;;;;;;;1999.90;999.90;;;17.30;99.90;;;;;;6716133;88;20241;-78
2023/03/29 14:46:38;;;;;;;1999.90;999.90;;;17.30;99.90;;;;;;6736377;88;20180;-79
2023/03/29 14:56:39;;;;;;;1999.90;999.90;;;17.40;99.90;;;;;;6733167;88;20197;-78
2023/03/29 15:06:42;;;;;;;1999.90;999.90;;;16.90;99.90;;;;;;6670322;88;20184;-78
2023/03/29 15:16:46;;;;;;;1999.90;999.90;;;16.70;99.90;;;;;;6718566;88;20613;-78
2023/03/29 15:26:58;;;;;;;1999.90;999.90;;;17.10;99.90;;;;;;6719973;88;20304;-79
2023/03/29 15:36:59;;;;;;;1999.90;999.90;;;17.20;99.90;;;;;;6680928;88;20251;-77
2023/03/29 15:47:00;;;;;;;1999.90;999.90;;;17.20;99.90;;;;;;6705522;88;20190;-78
2023/03/29 15:57:05;;;;;;;1999.90;999.90;;;17.20;99.90;;;;;;6716944;88;20709;-77
2023/03/29 16:07:12;;;;;;;1999.90;999.90;;;17.10;99.90;;;;;;6723090;88;20274;-78
2023/03/29 16:17:13;;;;;;;1999.90;999.90;;;17.00;99.90;;;;;;6707331;88;20237;-78
2023/03/29 16:37:17;;;;;;;1999.90;999.90;;;17.00;99.90;;;;;;6724489;88;20369;-79
2023/03/29 16:47:17;;;;;;;1999.90;999.90;;;16.90;99.90;;;;;;6727460;88;20229;-79
2023/03/29 16:57:18;;;;;;;1999.90;999.90;;;16.80;99.90;;;;;;6710843;88;20184;-82
2023/03/29 17:07:18;;;;;;;1999.90;999.90;;;16.60;99.90;;;;;;6702646;88;20285;-79
2023/03/29 17:17:19;;;;;;;1999.90;999.90;;;16.50;99.90;;;;;;6721889;88;20243;-79
2023/03/29 17:27:20;;;;;;;1999.90;999.90;;;16.40;99.90;;;;;;6720174;88;20200;-79
2023/03/29 17:37:21;;;;;;;1999.90;999.90;;;16.20;99.90;;;;;;6725839;88;21655;-80
2023/03/29 17:47:22;;;;;;;1999.90;999.90;;;16.10;99.90;;;;;;6696823;88;20663;-79
2023/03/29 17:57:22;;;;;;;1999.90;999.90;;;15.80;99.90;;;;;;6714246;88;20201;-80
2023/03/29 18:07:23;;;;;;;1999.90;999.90;;;15.60;99.90;;;;;;6722593;88;20240;-79
2023/03/29 18:17:26;;;;;;;1999.90;999.90;;;15.50;99.90;;;;;;6727232;88;20234;-78
2023/03/29 18:27:26;;;;;;;1999.90;999.90;;;15.40;99.90;;;;;;6734602;88;20188;-77
2023/03/29 18:37:27;;;;;;;1999.90;999.90;;;15.30;99.90;;;;;;6754834;88;20619;-76
2023/03/29 18:47:27;;;;;;;1999.90;999.90;;;15.20;99.90;;;;;;6728206;88;20221;-77
2023/03/29 18:57:28;;;;;;;1999.90;999.90;;;14.90;99.90;;;;;;6727175;88;20203;-77
2023/03/29 19:07:29;;;;;;;1999.90;999.90;;;14.60;99.90;;;;;;6721788;88;20208;-78
2023/03/29 19:17:29;;;;;;;1999.90;999.90;;;14.50;99.90;;;;;;6723960;88;20185;-77
2023/03/29 19:27:32;;;;;;;1999.90;999.90;;;14.30;99.90;;;;;;6724793;88;20236;-78
2023/03/29 19:37:33;;;;;;;1999.90;999.90;;;14.20;99.90;;;;;;6725239;88;20225;-79
2023/03/29 19:47:34;;;;;;;1999.90;999.90;;;14.10;99.90;;;;;;6727398;88;20203;-77
2023/03/29 19:57:35;;;;;;;1999.90;999.90;;;14.10;99.90;;;;;;6716020;88;20776;-77
2023/03/29 20:07:35;;;;;;;1999.90;999.90;;;14.00;99.90;;;;;;6724336;88;20190;-79
2023/03/29 20:17:39;;;;;;;1999.90;999.90;;;14.10;99.90;;;;;;6727784;88;20301;-77
2023/03/29 20:27:40;;;;;;;1999.90;999.90;;;14.10;99.90;;;;;;6719092;88;20321;-78
2023/03/29 20:37:40;;;;;;;1999.90;999.90;;;14.10;99.90;;;;;;6740987;88;20213;-78
2023/03/29 20:47:49;;;;;;;1999.90;999.90;;;14.10;99.90;;;;;;6711130;88;20323;-77
2023/03/29 20:57:53;;;;;;;1999.90;999.90;;;13.90;99.90;;;;;;6718065;88;20201;-78
2023/03/29 21:07:54;;;;;;;1999.90;999.90;;;13.90;99.90;;;;;;6727991;88;20298;-78
2023/03/29 21:17:55;;;;;;;1999.90;999.90;;;13.90;99.90;;;;;;6726788;88;20284;-78
2023/03/29 21:27:55;;;;;;;1999.90;999.90;;;13.80;99.90;;;;;;6719610;88;20221;-78
2023/03/29 21:37:56;;;;;;;1999.90;999.90;;;13.70;99.90;;;;;;6721016;88;20607;-77
2023/03/29 21:47:56;;;;;;;1999.90;999.90;;;13.70;99.90;;;;;;6719032;88;20198;-77
2023/03/29 21:57:57;;;;;;;1999.90;999.90;;;13.60;99.90;;;;;;6723207;88;20230;-77
2023/03/29 22:07:57;;;;;;;1999.90;999.90;;;13.50;99.90;;;;;;6720337;88;20566;-77
2023/03/29 22:17:59;;;;;;;1999.90;999.90;;;13.50;99.90;;;;;;6722615;88;20202;-77
2023/03/29 22:38:03;;;;;;;1999.90;999.90;;;14.50;99.90;;;;;;6739078;88;20232;-80
2023/03/29 22:48:03;;;;;;;1999.90;999.90;;;14.90;99.90;;;;;;6730316;88;20236;-80
2023/03/29 22:58:04;;;;;;;1999.90;999.90;;;15.10;99.90;;;;;;6729700;88;20185;-80
2023/03/29 23:08:05;;;;;;;1999.90;999.90;;;15.20;99.90;;;;;;6732989;88;20202;-79
2023/03/29 23:18:06;;;;;;;1999.90;999.90;;;15.40;99.90;;;;;;6740466;88;20488;-79
2023/03/29 23:28:06;;;;;;;1999.90;999.90;;;15.60;99.90;;;;;;6729366;88;20272;-79
2023/03/29 23:38:07;;;;;;;1999.90;999.90;;;15.60;99.90;;;;;;6727275;88;20211;-78
2023/03/29 23:48:07;;;;;;;1999.90;999.90;;;15.90;99.90;;;;;;6727800;88;20743;-79
2023/03/29 23:58:08;;;;;;;1999.90;999.90;;;16.10;99.90;;;;;;6727750;88;20259;-79
